Time;durP1;ratioP1;P1;durP2;ratioP2;P2;SDS_P1;SDS_P2;PMS_P1;PMS_P2;Temp;Humidity;BMP_temperature;BMP_pressure;BME280_temperature;BME280_humidity;BME280_pressure;Samples;Min_cycle;Max_cycle;Signal;HPM_P1;HPM_P2
2021/10/07 00:02:23;;;;;;;3.70;2.50;;;14.20;99.90;;;;;;5064465;28;20467;-32
2021/10/07 00:04:54;;;;;;;3.10;2.80;;;14.30;99.90;;;;;;5064944;28;20510;-32
2021/10/07 00:07:25;;;;;;;3.07;2.77;;;14.40;99.90;;;;;;5066831;28;20456;-32
2021/10/07 00:09:56;;;;;;;2.93;2.73;;;14.60;99.90;;;;;;5052244;28;20504;-32
2021/10/07 00:12:27;;;;;;;4.10;3.17;;;14.70;99.90;;;;;;5065540;28;20437;-32
2021/10/07 00:14:58;;;;;;;2.40;2.20;;;14.60;99.90;;;;;;5065990;28;20452;-32
2021/10/07 00:17:31;;;;;;;2.90;2.60;;;14.70;99.90;;;;;;5064829;28;20452;-32
2021/10/07 00:20:02;;;;;;;2.70;2.50;;;14.80;99.90;;;;;;5064531;28;20452;-32
2021/10/07 00:22:33;;;;;;;2.30;2.20;;;14.70;99.90;;;;;;5063000;28;20455;-33
2021/10/07 00:25:04;;;;;;;3.53;2.10;;;14.60;99.90;;;;;;5065366;28;20483;-32
2021/10/07 00:27:35;;;;;;;2.40;2.20;;;14.60;99.90;;;;;;5065157;28;20479;-32
2021/10/07 00:30:11;;;;;;;2.27;2.07;;;14.70;99.90;;;;;;5065233;28;20990;-33
2021/10/07 00:32:48;;;;;;;2.00;1.80;;;14.50;99.90;;;;;;5065125;28;20502;-32
2021/10/07 00:41:21;;;;;;;2.20;1.53;;;14.00;99.90;;;;;;5198315;27;20447;-39
2021/10/07 00:43:52;;;;;;;2.20;2.03;;;14.00;99.90;;;;;;5188257;27;20447;-41
2021/10/07 00:46:23;;;;;;;2.30;1.83;;;13.80;99.90;;;;;;5198349;27;20430;-41
2021/10/07 00:48:54;;;;;;;2.63;1.70;;;13.70;99.90;;;;;;5198848;27;20452;-40
2021/10/07 00:51:25;;;;;;;1.93;1.83;;;13.70;99.90;;;;;;5201127;27;20439;-41
2021/10/07 00:53:58;;;;;;;2.50;2.30;;;13.70;99.90;;;;;;5183069;27;20778;-41
2021/10/07 00:56:29;;;;;;;2.80;1.90;;;13.60;99.90;;;;;;5202204;27;20964;-41
2021/10/07 00:59:01;;;;;;;2.10;1.90;;;13.50;99.90;;;;;;5203388;27;20443;-40
2021/10/07 01:01:32;;;;;;;3.10;2.37;;;13.60;99.90;;;;;;5203201;27;20457;-41
2021/10/07 01:04:04;;;;;;;2.70;2.50;;;13.50;99.90;;;;;;5201591;27;20501;-41
2021/10/07 01:06:35;;;;;;;2.13;1.93;;;13.60;99.90;;;;;;5202085;27;20430;-40
2021/10/07 01:09:08;;;;;;;2.57;2.20;;;13.50;99.90;;;;;;5195607;27;20503;-40
2021/10/07 01:11:39;;;;;;;4.33;2.63;;;13.40;99.90;;;;;;5202418;27;20438;-40
2021/10/07 01:14:10;;;;;;;2.80;2.60;;;13.30;99.90;;;;;;5202338;27;20442;-40
2021/10/07 01:16:41;;;;;;;4.40;3.10;;;13.20;99.90;;;;;;5202577;27;20470;-41
2021/10/07 01:19:12;;;;;;;4.67;2.53;;;13.10;99.90;;;;;;5201306;27;20485;-41
2021/10/07 01:21:45;;;;;;;3.17;2.97;;;13.00;99.90;;;;;;5203830;27;20438;-41
2021/10/07 01:24:18;;;;;;;3.20;2.90;;;12.90;99.90;;;;;;5202895;27;20470;-40
2021/10/07 01:26:49;;;;;;;3.70;3.10;;;12.80;99.90;;;;;;5203230;27;20446;-41
2021/10/07 01:29:20;;;;;;;3.33;2.43;;;12.70;99.90;;;;;;5202696;27;20591;-41
2021/10/07 01:31:51;;;;;;;3.50;2.50;;;12.60;99.90;;;;;;5202490;27;20485;-40
2021/10/07 01:34:26;;;;;;;3.17;2.87;;;12.60;99.90;;;;;;5201094;27;20902;-40
2021/10/07 01:37:00;;;;;;;3.93;2.67;;;12.60;99.90;;;;;;5203006;27;20477;-40
2021/10/07 01:39:31;;;;;;;3.80;3.40;;;12.50;99.90;;;;;;5202088;27;20518;-40
2021/10/07 01:42:02;;;;;;;5.43;3.93;;;12.50;99.90;;;;;;5202072;27;20465;-40
2021/10/07 01:44:33;;;;;;;4.13;3.73;;;12.50;99.90;;;;;;5202341;27;20518;-40
2021/10/07 01:47:04;;;;;;;5.00;4.17;;;12.30;99.90;;;;;;5202388;27;20442;-40
2021/10/07 01:49:35;;;;;;;3.60;3.23;;;12.20;99.90;;;;;;5183596;27;20455;-40
2021/10/07 01:52:09;;;;;;;4.43;3.60;;;12.20;99.90;;;;;;5170234;27;20424;-39
2021/10/07 01:54:39;;;;;;;5.90;3.83;;;12.20;99.90;;;;;;5188467;27;20449;-40
2021/10/07 01:57:10;;;;;;;4.90;3.70;;;12.20;99.90;;;;;;5187276;27;20499;-40
2021/10/07 01:59:41;;;;;;;5.17;4.00;;;12.10;99.90;;;;;;5187837;27;20474;-40
2021/10/07 02:02:12;;;;;;;4.53;4.13;;;12.10;99.90;;;;;;5171321;27;20451;-39
2021/10/07 02:04:43;;;;;;;3.87;3.57;;;12.00;99.90;;;;;;5187673;27;20448;-41
2021/10/07 02:07:16;;;;;;;5.10;4.57;;;12.00;99.90;;;;;;5182697;27;20448;-41
2021/10/07 02:09:47;;;;;;;4.70;4.30;;;11.90;99.90;;;;;;5187165;27;20435;-40
2021/10/07 02:12:18;;;;;;;5.30;4.60;;;11.90;99.90;;;;;;5185939;27;20450;-40
2021/10/07 02:14:49;;;;;;;4.80;4.40;;;11.80;99.90;;;;;;5187900;27;20502;-40
2021/10/07 02:17:20;;;;;;;7.37;6.33;;;11.80;99.90;;;;;;5187492;27;20985;-40
2021/10/07 02:19:52;;;;;;;8.27;7.27;;;11.80;99.90;;;;;;5183791;27;20439;-40
2021/10/07 02:22:24;;;;;;;8.30;7.60;;;11.80;99.90;;;;;;5188136;27;20526;-40
2021/10/07 02:24:55;;;;;;;12.27;9.40;;;11.70;99.90;;;;;;5185207;27;20771;-40
2021/10/07 02:27:26;;;;;;;9.37;8.30;;;11.70;99.90;;;;;;5187767;27;20499;-40
2021/10/07 02:29:57;;;;;;;8.47;7.87;;;11.60;99.90;;;;;;5187320;27;20463;-41
2021/10/07 02:32:28;;;;;;;8.50;7.80;;;11.60;99.90;;;;;;5187150;27;20466;-41
2021/10/07 02:34:59;;;;;;;10.40;8.30;;;11.50;99.90;;;;;;5187522;27;20496;-41
2021/10/07 02:37:32;;;;;;;9.80;8.20;;;11.40;99.90;;;;;;5185964;27;20482;-41
2021/10/07 02:40:04;;;;;;;8.33;7.53;;;11.40;99.90;;;;;;5187400;27;20486;-41
2021/10/07 02:42:35;;;;;;;10.83;9.83;;;11.30;99.90;;;;;;5187796;27;20450;-41
2021/10/07 02:45:07;;;;;;;9.80;8.80;;;11.40;99.90;;;;;;5186945;27;20451;-41
2021/10/07 02:47:38;;;;;;;9.00;8.20;;;11.30;99.90;;;;;;5186424;27;20443;-40
2021/10/07 02:50:11;;;;;;;9.20;8.30;;;11.30;99.90;;;;;;5177877;27;20813;-40
2021/10/07 02:52:43;;;;;;;8.57;7.77;;;11.20;99.90;;;;;;5183463;27;20830;-40
2021/10/07 02:55:15;;;;;;;9.53;8.63;;;11.10;99.90;;;;;;5187271;27;20443;-41
2021/10/07 02:57:46;;;;;;;9.10;8.30;;;11.10;99.90;;;;;;5186988;27;20570;-40
2021/10/07 03:00:20;;;;;;;9.40;8.57;;;11.10;99.90;;;;;;5185292;27;20447;-40
2021/10/07 03:02:51;;;;;;;10.00;9.10;;;11.10;99.90;;;;;;5186392;27;20928;-41
2021/10/07 03:05:22;;;;;;;10.13;9.23;;;10.90;99.90;;;;;;5186061;27;20443;-40
2021/10/07 03:07:55;;;;;;;10.67;9.57;;;11.00;99.90;;;;;;5186217;27;20554;-40
2021/10/07 03:10:26;;;;;;;10.77;9.67;;;10.90;99.90;;;;;;5186121;27;20515;-40
2021/10/07 03:12:57;;;;;;;16.27;10.73;;;10.90;99.90;;;;;;5186930;27;20507;-41
2021/10/07 03:15:28;;;;;;;12.37;11.03;;;10.80;99.90;;;;;;5186300;27;20447;-41
2021/10/07 03:17:59;;;;;;;14.90;13.40;;;10.80;99.90;;;;;;5185911;27;20470;-41
2021/10/07 03:20:31;;;;;;;15.57;13.70;;;10.80;99.90;;;;;;5186221;27;20536;-40
2021/10/07 03:23:03;;;;;;;15.70;14.10;;;10.80;99.90;;;;;;5186871;27;20507;-41
2021/10/07 03:25:34;;;;;;;14.83;12.90;;;10.70;99.90;;;;;;5187055;27;20447;-41
2021/10/07 03:28:05;;;;;;;15.57;13.87;;;10.70;99.90;;;;;;5185934;27;20443;-41
2021/10/07 03:30:36;;;;;;;15.65;14.25;;;10.70;99.90;;;;;;5186860;27;20447;-41
2021/10/07 03:33:08;;;;;;;16.65;13.98;;;10.60;99.90;;;;;;5185699;27;20645;-41
2021/10/07 03:35:39;;;;;;;13.18;11.88;;;10.60;99.90;;;;;;5186446;27;20198;-41
2021/10/07 03:38:12;;;;;;;16.30;14.30;;;10.50;99.90;;;;;;5185938;27;20234;-41
2021/10/07 03:40:43;;;;;;;16.07;13.07;;;10.50;99.90;;;;;;5182912;27;20202;-41
2021/10/07 03:43:15;;;;;;;15.23;13.63;;;10.50;99.90;;;;;;5166342;27;20448;-41
2021/10/07 03:45:46;;;;;;;14.90;13.35;;;10.40;99.90;;;;;;5186341;27;20455;-41
2021/10/07 03:48:17;;;;;;;15.15;13.55;;;10.40;99.90;;;;;;5185641;27;20198;-40
2021/10/07 03:50:48;;;;;;;14.60;12.60;;;10.40;99.90;;;;;;5185048;27;20204;-40
2021/10/07 03:53:22;;;;;;;17.17;14.30;;;10.30;99.90;;;;;;5185338;27;20198;-40
2021/10/07 03:55:53;;;;;;;14.73;13.43;;;10.30;99.90;;;;;;5184761;27;20447;-40
2021/10/07 03:58:24;;;;;;;13.70;12.30;;;10.30;99.90;;;;;;5184861;27;20246;-40
2021/10/07 04:00:57;;;;;;;15.30;12.18;;;10.20;99.90;;;;;;5185071;27;20198;-40
2021/10/07 04:03:28;;;;;;;13.37;11.97;;;10.10;99.90;;;;;;5185946;27;20220;-40
2021/10/07 04:06:00;;;;;;;12.40;11.07;;;10.20;99.90;;;;;;5184448;27;20443;-41
2021/10/07 04:08:34;;;;;;;15.07;13.35;;;10.10;99.90;;;;;;5184796;27;20209;-41
2021/10/07 04:11:05;;;;;;;13.55;12.18;;;10.10;99.90;;;;;;5184385;27;20200;-39
2021/10/07 04:13:36;;;;;;;13.83;12.00;;;10.10;99.90;;;;;;5185954;27;20211;-41
2021/10/07 04:16:07;;;;;;;13.20;11.83;;;10.10;99.90;;;;;;5185644;27;20511;-41
2021/10/07 04:18:40;;;;;;;12.40;11.20;;;10.00;99.90;;;;;;5184067;27;20499;-41
2021/10/07 04:21:11;;;;;;;13.10;11.90;;;10.00;99.90;;;;;;5179552;27;20230;-41
2021/10/07 04:23:44;;;;;;;12.38;11.10;;;10.00;99.90;;;;;;5185795;27;20194;-41
2021/10/07 04:26:15;;;;;;;14.82;12.63;;;9.90;99.90;;;;;;5179124;27;20262;-41
2021/10/07 04:28:46;;;;;;;12.40;11.23;;;9.80;99.90;;;;;;5173947;27;20198;-41
2021/10/07 04:31:17;;;;;;;13.07;11.65;;;9.70;99.90;;;;;;5185772;27;20202;-40
2021/10/07 04:33:48;;;;;;;14.27;12.57;;;9.70;99.90;;;;;;5185077;27;20223;-40
2021/10/07 04:36:19;;;;;;;12.90;11.60;;;9.70;99.90;;;;;;5185068;27;20258;-40
2021/10/07 04:38:52;;;;;;;14.70;12.57;;;9.60;99.90;;;;;;5185151;27;20221;-40
2021/10/07 04:41:23;;;;;;;14.27;12.80;;;9.60;99.90;;;;;;5185751;27;20258;-40
2021/10/07 04:43:54;;;;;;;14.07;12.45;;;9.50;99.90;;;;;;5184938;27;20198;-41
2021/10/07 04:46:25;;;;;;;15.82;14.23;;;9.50;99.90;;;;;;5185524;27;20194;-40
2021/10/07 04:48:57;;;;;;;14.05;12.55;;;9.50;99.90;;;;;;5184403;27;20592;-40
2021/10/07 04:51:28;;;;;;;13.93;12.52;;;9.50;99.90;;;;;;5182684;27;20206;-40
2021/10/07 04:54:00;;;;;;;14.82;13.45;;;9.50;99.90;;;;;;5183500;27;20226;-41
2021/10/07 04:56:31;;;;;;;14.18;12.73;;;9.50;99.90;;;;;;5178552;27;20674;-40
2021/10/07 04:59:02;;;;;;;14.65;13.23;;;9.40;99.90;;;;;;5182343;27;20342;-40
2021/10/07 05:01:33;;;;;;;13.70;12.32;;;9.30;99.90;;;;;;5185396;27;20205;-41
2021/10/07 05:04:04;;;;;;;14.27;12.88;;;9.40;99.90;;;;;;5184131;27;20183;-41
2021/10/07 05:06:35;;;;;;;13.40;12.10;;;9.30;99.90;;;;;;5185150;27;20231;-41
2021/10/07 05:09:08;;;;;;;13.23;11.85;;;9.30;99.90;;;;;;5184287;27;20198;-41
2021/10/07 05:11:39;;;;;;;15.75;13.13;;;9.20;99.90;;;;;;5185528;27;20201;-41
2021/10/07 05:14:10;;;;;;;15.77;14.20;;;9.20;99.90;;;;;;5184429;27;20202;-41
2021/10/07 05:16:41;;;;;;;14.52;13.02;;;9.20;99.90;;;;;;5184652;27;20490;-42
2021/10/07 05:19:12;;;;;;;15.43;14.02;;;9.20;99.90;;;;;;5183819;27;20228;-40
2021/10/07 05:21:42;;;;;;;14.90;13.40;;;9.20;99.90;;;;;;5184062;27;20690;-40
2021/10/07 05:24:15;;;;;;;13.38;11.98;;;9.20;99.90;;;;;;5186333;27;20621;-41
2021/10/07 05:26:46;;;;;;;15.55;12.77;;;9.20;99.90;;;;;;5189084;27;20198;-41
2021/10/07 05:29:17;;;;;;;13.40;12.20;;;9.10;99.90;;;;;;5188473;27;20241;-41
2021/10/07 05:31:49;;;;;;;14.13;12.00;;;9.10;99.90;;;;;;5189200;27;20194;-42
2021/10/07 05:34:21;;;;;;;16.13;11.88;;;9.00;99.90;;;;;;5169903;27;20186;-41
2021/10/07 05:36:52;;;;;;;13.57;12.25;;;9.10;99.90;;;;;;5188128;27;20250;-40
2021/10/07 05:39:25;;;;;;;13.45;12.27;;;9.00;99.90;;;;;;5188734;27;20353;-41
2021/10/07 05:41:56;;;;;;;12.57;11.48;;;9.00;99.90;;;;;;5188446;27;20520;-41
2021/10/07 05:44:27;;;;;;;11.52;10.43;;;9.00;99.90;;;;;;5188158;27;20257;-41
2021/10/07 05:46:58;;;;;;;12.30;11.20;;;8.90;99.90;;;;;;5187987;27;20270;-42
2021/10/07 05:49:28;;;;;;;13.20;11.90;;;8.80;99.90;;;;;;5188165;27;20222;-41
2021/10/07 05:52:00;;;;;;;11.80;10.80;;;8.80;99.90;;;;;;5188473;27;20198;-40
2021/10/07 05:54:32;;;;;;;14.40;12.88;;;8.70;99.90;;;;;;5187258;27;20190;-41
2021/10/07 05:57:04;;;;;;;12.75;11.50;;;8.80;99.90;;;;;;5187793;27;20222;-40
2021/10/07 05:59:35;;;;;;;13.38;11.98;;;8.80;99.90;;;;;;5187689;27;20213;-41
2021/10/07 06:02:06;;;;;;;13.20;12.00;;;8.80;99.90;;;;;;5184985;27;20240;-40
2021/10/07 06:04:37;;;;;;;12.40;11.20;;;8.70;99.90;;;;;;5188087;27;20188;-41
2021/10/07 06:07:08;;;;;;;12.57;11.27;;;8.70;99.90;;;;;;5188397;27;20220;-41
2021/10/07 06:09:41;;;;;;;12.43;11.23;;;8.70;99.90;;;;;;5188011;27;20202;-41
2021/10/07 06:12:12;;;;;;;11.85;10.65;;;8.70;99.90;;;;;;5188269;27;20205;-41
2021/10/07 06:14:43;;;;;;;11.82;10.82;;;8.70;99.90;;;;;;5187713;27;20198;-41
2021/10/07 06:17:14;;;;;;;13.70;12.38;;;8.70;99.90;;;;;;5188135;27;20190;-40
2021/10/07 06:19:47;;;;;;;11.88;10.63;;;8.70;99.90;;;;;;5187432;27;20226;-40
2021/10/07 06:22:18;;;;;;;12.30;11.07;;;8.60;99.90;;;;;;5187161;27;20189;-41
2021/10/07 06:24:50;;;;;;;12.40;11.18;;;8.50;99.90;;;;;;5187220;27;20217;-41
2021/10/07 06:27:21;;;;;;;12.13;11.02;;;8.50;99.90;;;;;;5188792;27;20209;-41
2021/10/07 06:29:52;;;;;;;12.30;11.23;;;8.40;99.90;;;;;;5188199;27;20193;-40
2021/10/07 06:32:23;;;;;;;12.43;11.32;;;8.30;99.90;;;;;;5187867;27;20246;-40
2021/10/07 06:34:54;;;;;;;15.45;11.52;;;8.30;99.90;;;;;;5187296;27;20220;-38
2021/10/07 06:37:25;;;;;;;12.05;10.95;;;8.30;99.90;;;;;;5188195;27;20249;-40
2021/10/07 06:39:58;;;;;;;15.05;11.15;;;8.30;99.90;;;;;;5187875;27;20236;-40
2021/10/07 06:42:30;;;;;;;11.27;10.27;;;8.20;99.90;;;;;;5187711;27;20201;-40
2021/10/07 06:45:01;;;;;;;11.13;10.00;;;8.30;99.90;;;;;;5188088;27;20210;-41
2021/10/07 06:47:32;;;;;;;11.70;10.50;;;8.30;99.90;;;;;;5187903;27;20613;-40
2021/10/07 06:50:03;;;;;;;11.30;10.20;;;8.20;99.90;;;;;;5186949;27;20285;-40
2021/10/07 06:52:34;;;;;;;12.25;10.93;;;8.20;99.90;;;;;;5187432;27;20609;-40
2021/10/07 06:55:09;;;;;;;11.85;10.63;;;8.20;99.90;;;;;;5187060;27;20194;-40
2021/10/07 06:57:41;;;;;;;12.48;11.27;;;8.30;99.90;;;;;;5188019;27;20205;-40
2021/10/07 07:00:13;;;;;;;12.23;11.05;;;8.40;99.90;;;;;;5187131;27;20270;-41
2021/10/07 07:02:44;;;;;;;11.50;10.40;;;8.30;99.90;;;;;;5187976;27;20213;-41
2021/10/07 07:05:15;;;;;;;12.38;10.80;;;8.40;99.90;;;;;;5186888;27;20265;-41
2021/10/07 07:07:47;;;;;;;11.30;10.23;;;8.30;99.90;;;;;;5187751;27;20194;-40
2021/10/07 07:10:19;;;;;;;11.82;10.70;;;8.20;99.90;;;;;;5187816;27;20209;-40
2021/10/07 07:12:52;;;;;;;12.73;11.07;;;8.10;99.90;;;;;;5187499;27;20198;-40
2021/10/07 07:15:23;;;;;;;11.57;10.50;;;8.10;99.90;;;;;;5187386;27;20186;-41
2021/10/07 07:17:54;;;;;;;10.93;9.88;;;8.10;99.90;;;;;;5187773;27;20191;-41
2021/10/07 07:20:26;;;;;;;13.27;11.05;;;8.10;99.90;;;;;;5185528;27;20229;-41
2021/10/07 07:22:57;;;;;;;12.00;10.80;;;8.10;99.90;;;;;;5187599;27;20229;-41
2021/10/07 07:25:30;;;;;;;12.55;11.25;;;8.10;99.90;;;;;;5186310;27;20189;-41
2021/10/07 07:28:01;;;;;;;10.93;9.80;;;8.10;99.90;;;;;;5187321;27;20594;-40
2021/10/07 07:30:32;;;;;;;11.93;10.35;;;8.00;99.90;;;;;;5186358;27;20190;-41
2021/10/07 07:33:03;;;;;;;12.70;10.95;;;8.00;99.90;;;;;;5187151;27;20292;-40
2021/10/07 07:35:34;;;;;;;10.95;10.02;;;8.00;99.90;;;;;;5186643;27;20193;-40
2021/10/07 07:38:06;;;;;;;10.70;9.68;;;8.00;99.90;;;;;;5187005;27;20608;-40
2021/10/07 07:40:39;;;;;;;11.75;10.57;;;8.00;99.90;;;;;;5186522;27;20228;-40
2021/10/07 07:43:10;;;;;;;10.50;9.40;;;7.90;99.90;;;;;;5187072;27;20216;-40
2021/10/07 07:45:40;;;;;;;12.00;10.80;;;7.90;99.90;;;;;;5186104;27;20198;-42
2021/10/07 07:48:11;;;;;;;11.80;10.63;;;7.90;99.90;;;;;;5186618;27;20190;-40
2021/10/07 07:50:43;;;;;;;12.00;9.80;;;7.90;99.90;;;;;;5186337;27;20240;-41
2021/10/07 07:53:13;;;;;;;10.68;9.68;;;7.80;99.90;;;;;;5186891;27;20564;-41
2021/10/07 07:55:46;;;;;;;11.25;10.25;;;7.70;99.90;;;;;;5185572;27;20201;-40
2021/10/07 07:58:18;;;;;;;12.88;10.93;;;7.70;99.90;;;;;;5186744;27;20228;-41
2021/10/07 08:00:50;;;;;;;11.20;10.15;;;7.70;99.90;;;;;;5186994;27;20222;-41
2021/10/07 08:03:22;;;;;;;13.07;11.88;;;7.70;99.90;;;;;;5186107;27;20185;-41
2021/10/07 08:05:53;;;;;;;11.60;10.43;;;7.70;99.90;;;;;;5186413;27;20198;-40
2021/10/07 08:08:24;;;;;;;12.63;10.43;;;7.60;99.90;;;;;;5186722;27;20524;-40
2021/10/07 08:10:57;;;;;;;11.23;10.13;;;7.60;99.90;;;;;;5186202;27;20657;-40
2021/10/07 08:13:28;;;;;;;9.90;8.68;;;7.60;99.90;;;;;;5186687;27;20208;-41
2021/10/07 08:15:58;;;;;;;15.13;10.68;;;7.60;99.90;;;;;;5186525;27;20186;-41
2021/10/07 08:18:29;;;;;;;11.93;10.73;;;7.60;99.90;;;;;;5185177;27;20236;-41
2021/10/07 08:21:00;;;;;;;15.43;11.10;;;7.60;99.90;;;;;;5185816;27;20249;-40
2021/10/07 08:23:35;;;;;;;10.90;9.70;;;7.60;99.90;;;;;;5185310;27;20558;-41
2021/10/07 08:26:08;;;;;;;13.77;10.85;;;7.50;99.90;;;;;;5182589;27;20200;-40
2021/10/07 08:28:39;;;;;;;11.40;10.40;;;7.40;99.90;;;;;;5186122;27;20205;-40
2021/10/07 08:31:10;;;;;;;11.52;10.32;;;7.40;99.90;;;;;;5186261;27;20656;-40
2021/10/07 08:33:41;;;;;;;12.98;11.43;;;7.30;99.90;;;;;;5185222;27;20200;-41
2021/10/07 08:36:12;;;;;;;16.15;11.50;;;7.30;99.90;;;;;;5186047;27;20237;-41
2021/10/07 08:38:43;;;;;;;14.95;11.80;;;7.30;99.90;;;;;;5185706;27;20217;-40
2021/10/07 08:41:16;;;;;;;13.95;11.15;;;7.40;99.90;;;;;;5185547;27;20272;-40
2021/10/07 08:43:52;;;;;;;12.93;10.73;;;7.30;99.90;;;;;;5178958;27;20186;-41
2021/10/07 08:46:26;;;;;;;11.88;10.43;;;7.30;99.90;;;;;;5186191;27;20198;-41
2021/10/07 08:48:59;;;;;;;12.00;10.73;;;7.20;99.90;;;;;;5185007;27;20230;-40
2021/10/07 08:51:30;;;;;;;11.52;10.32;;;7.10;99.90;;;;;;5185682;27;20202;-40
2021/10/07 08:54:01;;;;;;;11.93;10.70;;;7.10;99.90;;;;;;5184779;27;20215;-40
2021/10/07 08:56:33;;;;;;;12.68;10.23;;;7.10;99.90;;;;;;5185012;27;20233;-40
2021/10/07 08:59:05;;;;;;;10.55;9.45;;;7.10;99.90;;;;;;5187562;27;20245;-40
2021/10/07 09:01:38;;;;;;;13.02;11.02;;;7.10;99.90;;;;;;5190505;27;20581;-40
2021/10/07 09:04:21;;;;;;;11.55;9.90;;;7.00;99.90;;;;;;5188814;27;20261;-40
2021/10/07 09:06:53;;;;;;;12.20;10.85;;;6.90;99.90;;;;;;5189752;27;20198;-40
2021/10/07 09:09:30;;;;;;;10.88;9.77;;;7.00;99.90;;;;;;5184214;27;20205;-39
2021/10/07 09:12:04;;;;;;;10.88;9.77;;;7.00;99.90;;;;;;5189164;27;20198;-40
2021/10/07 09:14:41;;;;;;;11.18;10.07;;;6.90;99.90;;;;;;5189820;27;20223;-41
2021/10/07 09:17:13;;;;;;;10.02;9.02;;;6.90;99.90;;;;;;5189045;27;20213;-41
2021/10/07 09:19:46;;;;;;;13.30;10.48;;;6.90;99.90;;;;;;5188912;27;20182;-41
2021/10/07 09:22:19;;;;;;;14.00;11.40;;;6.90;99.90;;;;;;5189071;27;20218;-41
2021/10/07 09:24:51;;;;;;;11.63;9.85;;;6.80;99.90;;;;;;5184687;27;20222;-41
2021/10/07 09:27:25;;;;;;;10.25;8.82;;;6.70;99.90;;;;;;5189696;27;20198;-41
2021/10/07 09:29:58;;;;;;;11.90;9.68;;;6.70;99.90;;;;;;5189180;27;20194;-41
2021/10/07 09:32:31;;;;;;;12.98;10.35;;;6.70;99.90;;;;;;5188169;27;20203;-41
2021/10/07 09:35:05;;;;;;;10.50;9.50;;;6.70;99.90;;;;;;5186157;27;20201;-40
2021/10/07 09:37:38;;;;;;;11.30;10.10;;;6.80;99.90;;;;;;5189390;27;20282;-41
2021/10/07 09:40:12;;;;;;;13.00;10.95;;;6.80;99.90;;;;;;5176597;27;20206;-41
2021/10/07 09:42:47;;;;;;;11.57;9.63;;;6.90;99.90;;;;;;5188438;27;20340;-41
2021/10/07 09:45:20;;;;;;;10.00;9.00;;;7.00;99.90;;;;;;5169656;27;20572;-41
2021/10/07 09:47:53;;;;;;;13.82;10.07;;;7.10;99.90;;;;;;5187545;27;20532;-41
2021/10/07 09:50:26;;;;;;;11.50;10.40;;;7.10;99.90;;;;;;5189115;27;20215;-41
2021/10/07 09:53:04;;;;;;;11.00;9.57;;;7.30;99.90;;;;;;5188503;27;20194;-41
2021/10/07 09:55:37;;;;;;;10.77;9.70;;;7.40;99.90;;;;;;5184724;27;20204;-40
2021/10/07 09:58:14;;;;;;;9.07;8.27;;;7.50;99.90;;;;;;5188811;27;20281;-40
2021/10/07 10:00:47;;;;;;;11.23;8.88;;;7.60;99.90;;;;;;5188460;27;20257;-40
2021/10/07 10:03:19;;;;;;;9.57;8.57;;;7.70;99.90;;;;;;5187601;27;20209;-41
2021/10/07 10:05:51;;;;;;;10.30;8.98;;;7.80;99.90;;;;;;5188561;27;20210;-40
2021/10/07 10:08:23;;;;;;;10.43;8.75;;;7.90;99.90;;;;;;5188839;27;20637;-40
2021/10/07 10:10:54;;;;;;;11.00;9.85;;;8.00;99.90;;;;;;5187878;27;20266;-40
2021/10/07 10:13:26;;;;;;;9.65;8.77;;;8.00;99.90;;;;;;5188249;27;20198;-41
2021/10/07 10:15:57;;;;;;;9.98;8.68;;;8.10;99.90;;;;;;5188049;27;20194;-41
2021/10/07 10:18:28;;;;;;;10.15;7.75;;;8.10;99.90;;;;;;5187645;27;20261;-41
2021/10/07 10:21:00;;;;;;;10.30;9.27;;;8.20;99.90;;;;;;5188075;27;20253;-41
2021/10/07 10:23:34;;;;;;;8.90;8.07;;;8.40;99.90;;;;;;5188004;27;20275;-41
2021/10/07 10:26:11;;;;;;;9.60;8.15;;;8.40;99.90;;;;;;5188152;27;20205;-41
2021/10/07 10:28:52;;;;;;;10.65;9.68;;;8.40;99.90;;;;;;5184254;27;20200;-41
2021/10/07 10:31:43;;;;;;;9.45;8.02;;;8.50;99.90;;;;;;5188359;27;20229;-41
2021/10/07 10:34:16;;;;;;;8.05;7.25;;;8.50;99.90;;;;;;5186966;27;20205;-41
2021/10/07 10:36:49;;;;;;;11.25;8.15;;;8.60;99.90;;;;;;5186956;27;20674;-41
2021/10/07 10:39:25;;;;;;;10.50;8.35;;;8.70;99.90;;;;;;5175238;27;20609;-41
2021/10/07 10:41:59;;;;;;;13.77;10.18;;;8.70;99.90;;;;;;5187930;27;20248;-41
2021/10/07 10:44:50;;;;;;;8.95;8.05;;;8.70;99.90;;;;;;5187473;27;20229;-42
2021/10/07 10:47:24;;;;;;;10.52;9.38;;;8.80;99.90;;;;;;5186839;27;20213;-41
2021/10/07 10:50:10;;;;;;;12.02;9.80;;;8.90;99.90;;;;;;5181532;27;20254;-40
2021/10/07 10:52:46;;;;;;;14.43;9.07;;;9.00;99.90;;;;;;5186833;27;20198;-41
2021/10/07 10:55:19;;;;;;;11.35;8.73;;;8.90;99.90;;;;;;5187382;27;20621;-41
2021/10/07 10:57:52;;;;;;;20.83;11.75;;;8.80;99.90;;;;;;5186622;27;20197;-40
2021/10/07 11:00:30;;;;;;;13.95;9.75;;;8.90;99.90;;;;;;5187530;27;20843;-40
2021/10/07 11:03:19;;;;;;;14.80;11.43;;;8.90;99.90;;;;;;5183738;27;20304;-41
2021/10/07 11:06:01;;;;;;;12.48;10.75;;;8.80;99.90;;;;;;5186744;27;20205;-41
2021/10/07 11:08:32;;;;;;;38.50;14.90;;;8.80;99.90;;;;;;5186876;27;20580;-40
2021/10/07 11:11:09;;;;;;;39.45;12.48;;;8.90;99.90;;;;;;5187465;27;20209;-40
2021/10/07 11:13:48;;;;;;;22.33;13.13;;;8.90;99.90;;;;;;5186293;27;20206;-40
2021/10/07 11:16:21;;;;;;;29.27;12.35;;;8.80;99.90;;;;;;5187101;27;20233;-40
2021/10/07 11:18:52;;;;;;;22.88;13.93;;;8.70;99.90;;;;;;5185983;27;20189;-42
2021/10/07 11:21:24;;;;;;;25.13;12.50;;;8.80;99.90;;;;;;5185873;27;20197;-40
2021/10/07 11:23:57;;;;;;;40.78;13.20;;;8.70;99.90;;;;;;5186535;27;20201;-41
2021/10/07 11:26:31;;;;;;;51.05;14.00;;;8.80;99.90;;;;;;5186987;27;20263;-40
2021/10/07 11:29:02;;;;;;;30.77;12.43;;;8.80;99.90;;;;;;5186698;27;20239;-41
2021/10/07 11:31:34;;;;;;;31.48;11.95;;;8.80;99.90;;;;;;5186853;27;20198;-41
2021/10/07 11:34:07;;;;;;;49.05;12.27;;;8.80;99.90;;;;;;5185444;27;20261;-41
2021/10/07 11:39:27;;;;;;;25.25;10.43;;;8.70;99.90;;;;;;5177798;27;20614;-41
2021/10/07 11:41:57;;;;;;;23.35;11.68;;;8.70;99.90;;;;;;5183344;27;20245;-40
2021/10/07 11:44:28;;;;;;;21.23;10.05;;;8.70;99.90;;;;;;5186456;27;20218;-40
2021/10/07 11:47:01;;;;;;;31.98;12.30;;;8.60;99.90;;;;;;5185198;27;20543;-41
2021/10/07 11:49:32;;;;;;;26.45;9.93;;;8.60;99.90;;;;;;5186270;27;20237;-41
2021/10/07 11:52:03;;;;;;;20.30;10.93;;;8.60;99.90;;;;;;5186784;27;20218;-41
2021/10/07 11:54:35;;;;;;;27.05;8.57;;;8.70;99.90;;;;;;5185932;27;20198;-41
2021/10/07 11:57:07;;;;;;;19.75;8.85;;;8.70;99.90;;;;;;5185471;27;20210;-40
2021/10/07 11:59:44;;;;;;;27.60;10.23;;;8.70;99.90;;;;;;5185941;27;20190;-42
2021/10/07 12:02:16;;;;;;;16.20;9.23;;;8.60;99.90;;;;;;5185273;27;20256;-41
2021/10/07 12:04:47;;;;;;;12.27;8.52;;;8.60;99.90;;;;;;5185488;27;20205;-40
2021/10/07 12:07:18;;;;;;;12.70;8.75;;;8.60;99.90;;;;;;5185796;27;20202;-42
2021/10/07 12:09:49;;;;;;;8.50;6.82;;;8.60;99.90;;;;;;5186608;27;20193;-41
2021/10/07 12:12:20;;;;;;;10.90;7.45;;;8.60;99.90;;;;;;5185090;27;20588;-41
2021/10/07 12:14:51;;;;;;;11.35;7.50;;;8.60;99.90;;;;;;5185587;27;20198;-40
2021/10/07 12:17:24;;;;;;;7.00;6.15;;;8.60;99.90;;;;;;5185189;27;20328;-40
2021/10/07 12:19:55;;;;;;;7.35;5.68;;;8.60;99.90;;;;;;5186216;27;20201;-40
2021/10/07 12:22:29;;;;;;;5.20;4.70;;;8.60;99.90;;;;;;5186016;27;20361;-40
2021/10/07 12:25:02;;;;;;;5.25;4.63;;;8.50;99.90;;;;;;5184950;27;20233;-40
2021/10/07 12:27:34;;;;;;;6.10;4.65;;;8.50;99.90;;;;;;5185808;27;20229;-39
2021/10/07 12:30:07;;;;;;;5.95;5.00;;;8.50;99.90;;;;;;5186019;27;20189;-40
2021/10/07 12:32:40;;;;;;;6.07;4.10;;;8.50;99.90;;;;;;5184829;27;20233;-41
2021/10/07 12:35:11;;;;;;;5.68;5.03;;;8.50;99.90;;;;;;5184888;27;20254;-40
2021/10/07 12:37:42;;;;;;;4.70;4.20;;;8.40;99.90;;;;;;5173507;27;20260;-40
2021/10/07 12:40:14;;;;;;;5.40;4.85;;;8.40;99.90;;;;;;5185576;27;20201;-40
2021/10/07 12:42:48;;;;;;;5.20;4.53;;;8.30;99.90;;;;;;5185376;27;20250;-40
2021/10/07 12:45:19;;;;;;;5.38;4.88;;;8.20;99.90;;;;;;5185955;27;20229;-40
2021/10/07 12:48:00;;;;;;;4.97;4.32;;;8.20;99.90;;;;;;5182828;27;20233;-39
2021/10/07 12:50:36;;;;;;;4.80;4.15;;;8.30;99.90;;;;;;5185104;27;20241;-40
2021/10/07 12:53:07;;;;;;;5.55;5.05;;;8.20;99.90;;;;;;5185791;27;20217;-41
2021/10/07 12:55:39;;;;;;;6.45;5.05;;;8.20;99.90;;;;;;5185707;27;20225;-40
2021/10/07 12:58:26;;;;;;;6.72;5.47;;;8.40;99.90;;;;;;5179230;27;20273;-40
2021/10/07 13:01:12;;;;;;;11.00;7.07;;;8.40;99.90;;;;;;5185844;27;20201;-41
2021/10/07 13:03:45;;;;;;;11.30;8.07;;;8.40;99.90;;;;;;5184421;27;20236;-41
2021/10/07 13:06:31;;;;;;;11.50;8.65;;;8.40;99.90;;;;;;5185276;27;20234;-41
2021/10/07 13:09:03;;;;;;;14.25;8.52;;;8.40;99.90;;;;;;5185782;27;20222;-40
2021/10/07 13:11:34;;;;;;;10.60;7.32;;;8.50;99.90;;;;;;5185133;27;20222;-41
2021/10/07 13:14:06;;;;;;;14.50;8.35;;;8.50;99.90;;;;;;5185475;27;20257;-40
2021/10/07 13:16:37;;;;;;;16.52;8.27;;;8.50;99.90;;;;;;5185770;27;20242;-40